Time;durP1;ratioP1;P1;durP2;ratioP2;P2;SDS_P1;SDS_P2;PMS_P1;PMS_P2;Temp;Humidity;BMP_temperature;BMP_pressure;BME280_temperature;BME280_humidity;BME280_pressure;Samples;Min_cycle;Max_cycle;Signal;HPM_P1;HPM_P2
2022/10/17 00:01:22;;;;;;;15.45;5.97;;;;;;;5.44;77.62;101748.54;1704898;84;21192;-79
2022/10/17 00:04:29;;;;;;;14.50;6.12;;;;;;;5.47;78.03;101752.41;1704876;84;21805;-80
2022/10/17 00:07:34;;;;;;;9.58;5.60;;;;;;;5.61;77.53;101757.72;1705570;84;21241;-81
2022/10/17 00:10:40;;;;;;;13.32;6.15;;;;;;;5.54;77.56;101755.05;1704151;83;21266;-80
2022/10/17 00:13:46;;;;;;;13.48;6.30;;;;;;;5.49;77.91;101754.51;1705562;84;21180;-80
2022/10/17 00:16:52;;;;;;;16.15;6.60;;;;;;;5.33;78.82;101764.23;1704371;83;21222;-81
2022/10/17 00:19:59;;;;;;;13.93;6.55;;;;;;;5.51;78.26;101762.07;1673372;85;21251;-80
2022/10/17 00:23:05;;;;;;;15.30;5.95;;;;;;;5.58;78.08;101764.72;1704456;83;21219;-81
2022/10/17 00:26:12;;;;;;;11.95;5.62;;;;;;;5.52;78.10;101769.23;1672962;85;21199;-81
2022/10/17 00:29:17;;;;;;;12.43;6.00;;;;;;;5.68;77.69;101764.44;1674275;85;21231;-79
2022/10/17 00:32:23;;;;;;;13.60;5.95;;;;;;;5.72;77.61;101765.95;1706003;84;21196;-79
2022/10/17 00:35:29;;;;;;;14.55;6.17;;;;;;;5.68;77.66;101769.00;1673021;85;21238;-79
2022/10/17 00:38:36;;;;;;;9.15;5.03;;;;;;;5.70;77.51;101769.28;1735629;82;21195;-78
2022/10/17 00:41:43;;;;;;;11.60;5.58;;;;;;;5.81;77.31;101778.87;1734685;82;21198;-79
2022/10/17 00:44:54;;;;;;;10.93;5.55;;;;;;;5.70;77.43;101776.07;1735655;82;21183;-79
2022/10/17 00:48:09;;;;;;;11.40;6.15;;;;;;;5.72;77.54;101782.73;1734117;82;21195;-79
2022/10/17 00:51:08;;;;;;;14.83;5.62;;;;;;;5.74;77.86;101779.41;1734282;82;21242;-80
2022/10/17 00:54:15;;;;;;;12.40;5.83;;;;;;;5.70;77.71;101780.14;1735667;82;21228;-79
2022/10/17 00:57:21;;;;;;;17.60;7.33;;;;;;;5.73;77.70;101781.27;1735687;82;21191;-79
2022/10/17 01:00:27;;;;;;;13.80;7.47;;;;;;;5.55;78.09;101794.78;1735601;82;21734;-78
2022/10/17 01:03:32;;;;;;;12.25;6.90;;;;;;;5.61;78.25;101794.37;1735519;82;21179;-78
2022/10/17 01:06:39;;;;;;;20.00;6.95;;;;;;;5.62;78.53;101794.74;1735773;82;21203;-78
2022/10/17 01:09:45;;;;;;;13.95;6.70;;;;;;;5.55;79.01;101793.42;1734983;81;21273;-78
2022/10/17 01:13:18;;;;;;;13.00;6.95;;;;;;;5.48;79.40;101797.06;1735496;82;21187;-78
2022/10/17 01:16:51;;;;;;;17.80;8.43;;;;;;;5.36;79.87;101804.23;1685661;84;21204;-78
2022/10/17 01:20:22;;;;;;;12.88;6.75;;;;;;;5.20;80.33;101801.31;1702458;84;21279;-78
2022/10/17 01:24:07;;;;;;;13.80;7.50;;;;;;;5.34;79.52;101800.73;1702633;84;21195;-80
2022/10/17 01:27:32;;;;;;;19.80;8.20;;;;;;;5.30;79.95;101803.77;1702678;84;21184;-80
2022/10/17 01:31:22;;;;;;;18.95;7.05;;;;;;;5.36;80.06;101800.16;1703024;84;21187;-79
2022/10/17 01:34:51;;;;;;;13.13;6.40;;;;;;;5.27;80.36;101803.51;1702818;84;21208;-79
2022/10/17 01:38:05;;;;;;;13.13;7.35;;;;;;;5.18;81.70;101802.78;1700451;83;21239;-79
2022/10/17 01:41:32;;;;;;;13.22;6.78;;;;;;;5.13;81.20;101809.02;1705532;84;21251;-78
2022/10/17 01:44:54;;;;;;;19.70;6.55;;;;;;;5.15;81.25;101804.34;1698173;84;21192;-79
2022/10/17 01:48:02;;;;;;;12.68;6.67;;;;;;;5.24;80.88;101808.27;1704343;83;21191;-78
2022/10/17 01:51:11;;;;;;;20.82;7.78;;;;;;;5.16;81.08;101814.70;1697626;84;21229;-78
2022/10/17 01:54:10;;;;;;;20.57;8.00;;;;;;;5.00;81.41;101813.04;1705863;84;21196;-78
2022/10/17 01:57:27;;;;;;;14.45;7.67;;;;;;;5.10;81.15;101814.64;1698569;84;21240;-79
2022/10/17 02:00:34;;;;;;;13.20;7.47;;;;;;;5.08;81.25;101804.36;1705544;84;21227;-78
2022/10/17 02:03:41;;;;;;;13.55;6.65;;;;;;;5.12;81.11;101808.61;1698494;84;21184;-79
2022/10/17 02:06:46;;;;;;;18.27;6.92;;;;;;;5.16;81.05;101814.70;1704642;84;21243;-78
2022/10/17 02:09:53;;;;;;;17.62;7.87;;;;;;;5.10;81.14;101811.92;1697047;83;21312;-78
2022/10/17 02:13:07;;;;;;;13.25;6.83;;;;;;;5.16;81.23;101811.50;1704222;84;21231;-78
2022/10/17 02:16:51;;;;;;;15.00;7.28;;;;;;;5.19;81.03;101807.23;1697189;84;21199;-78
2022/10/17 02:20:16;;;;;;;18.07;7.50;;;;;;;5.22;80.79;101804.78;1704418;84;21203;-78
2022/10/17 02:23:41;;;;;;;18.30;8.03;;;;;;;5.23;80.71;101803.34;1697237;84;21751;-78
2022/10/17 02:27:05;;;;;;;19.05;7.28;;;;;;;5.06;81.24;101797.70;1705635;84;21204;-79
2022/10/17 02:30:31;;;;;;;16.40;7.75;;;;;;;5.12;81.44;101796.41;1698464;84;21244;-78
2022/10/17 02:33:47;;;;;;;14.75;6.92;;;;;;;5.19;81.21;101797.73;1704449;83;21817;-78
2022/10/17 02:37:02;;;;;;;15.10;7.62;;;;;;;5.16;81.19;101792.51;1697751;84;21220;-78
2022/10/17 02:40:08;;;;;;;11.88;6.22;;;;;;;5.22;81.22;101799.34;1730773;82;21205;-78
2022/10/17 02:43:14;;;;;;;13.35;7.53;;;;;;;5.20;81.27;101792.69;1734812;82;21319;-78
2022/10/17 02:46:23;;;;;;;17.07;8.18;;;;;;;5.15;81.28;101798.91;1734576;82;21169;-78
2022/10/17 02:49:40;;;;;;;28.27;6.95;;;;;;;5.28;80.98;101806.59;1712150;82;21209;-78
2022/10/17 02:53:02;;;;;;;16.87;7.17;;;;;;;5.31;80.94;101809.57;1734415;82;21258;-78
2022/10/17 02:56:11;;;;;;;16.70;8.25;;;;;;;5.33;80.81;101809.00;1735826;82;21153;-81
2022/10/17 02:59:17;;;;;;;13.28;6.58;;;;;;;5.34;80.64;101810.23;1734623;82;21245;-78
2022/10/17 03:02:23;;;;;;;13.25;6.87;;;;;;;5.32;80.75;101804.06;1735667;82;21157;-78
2022/10/17 03:05:33;;;;;;;15.60;7.60;;;;;;;5.39;80.65;101808.07;1735744;82;21178;-79
2022/10/17 03:08:39;;;;;;;14.05;7.70;;;;;;;5.40;80.47;101813.00;1734455;82;21181;-79
2022/10/17 03:11:45;;;;;;;13.48;7.30;;;;;;;5.29;81.09;101808.82;1735716;82;21164;-79
2022/10/17 03:14:51;;;;;;;18.87;7.78;;;;;;;5.29;81.01;101809.69;1734488;82;21244;-79
2022/10/17 03:17:58;;;;;;;12.80;6.72;;;;;;;5.24;81.24;101810.98;1734491;82;21177;-78
2022/10/17 03:21:04;;;;;;;15.68;8.08;;;;;;;5.25;81.31;101808.64;1735948;82;21169;-79
2022/10/17 03:24:11;;;;;;;14.50;7.28;;;;;;;5.25;81.27;101809.52;1734322;82;21220;-79
2022/10/17 03:27:17;;;;;;;12.33;7.00;;;;;;;5.13;81.60;101815.30;1734456;82;21727;-79
2022/10/17 03:30:22;;;;;;;12.53;6.72;;;;;;;5.09;81.91;101819.69;1735808;82;21218;-78
2022/10/17 03:33:28;;;;;;;22.58;7.30;;;;;;;5.10;82.17;101816.86;1734555;82;21522;-78
2022/10/17 03:36:35;;;;;;;12.60;6.40;;;;;;;4.80;83.28;101823.02;1734606;82;21165;-78
2022/10/17 03:39:41;;;;;;;16.35;7.40;;;;;;;5.24;82.04;101822.70;1733688;82;21275;-79
2022/10/17 03:42:46;;;;;;;21.33;7.70;;;;;;;5.28;81.43;101828.80;1732389;83;21203;-78
2022/10/17 03:45:53;;;;;;;16.37;8.40;;;;;;;5.31;81.36;101829.43;1732772;83;21207;-79
2022/10/17 03:48:58;;;;;;;15.30;7.62;;;;;;;5.33;80.94;101823.42;1732575;83;21190;-78
2022/10/17 03:52:06;;;;;;;13.08;6.90;;;;;;;5.24;81.21;101821.34;1733035;83;21234;-79
2022/10/17 03:55:11;;;;;;;12.95;7.65;;;;;;;5.17;81.40;101820.50;1732754;83;21196;-79
2022/10/17 03:58:16;;;;;;;15.80;7.60;;;;;;;5.21;81.10;101824.25;1699930;84;21208;-78
2022/10/17 04:01:24;;;;;;;13.32;7.33;;;;;;;5.25;80.82;101820.36;1699903;84;22028;-78
2022/10/17 04:04:30;;;;;;;14.60;8.13;;;;;;;5.31;80.40;101821.78;1699027;84;21207;-79
2022/10/17 04:07:36;;;;;;;15.45;7.00;;;;;;;5.32;80.35;101824.91;1699673;84;21231;-78
2022/10/17 04:10:43;;;;;;;13.78;7.25;;;;;;;5.26;80.33;101826.16;1698566;83;21231;-78
2022/10/17 04:13:50;;;;;;;16.60;7.85;;;;;;;5.24;80.36;101830.84;1699527;84;21471;-79
2022/10/17 04:16:57;;;;;;;14.53;7.03;;;;;;;5.33;80.17;101834.28;1700013;84;21188;-79
2022/10/17 04:20:02;;;;;;;15.75;7.72;;;;;;;5.38;80.03;101831.25;1699996;84;21597;-79
2022/10/17 04:23:08;;;;;;;19.12;7.97;;;;;;;5.38;80.02;101828.05;1699700;84;21239;-78
2022/10/17 04:26:14;;;;;;;15.30;7.67;;;;;;;5.34;80.35;101840.08;1698669;84;21250;-79
2022/10/17 04:29:22;;;;;;;14.18;7.35;;;;;;;4.99;81.25;101847.05;1698759;84;21255;-79
2022/10/17 04:32:39;;;;;;;15.28;8.03;;;;;;;5.23;81.26;101849.45;1699887;84;21204;-79
2022/10/17 04:35:45;;;;;;;19.23;7.22;;;;;;;5.36;80.96;101852.17;1699981;84;21200;-79
2022/10/17 04:38:53;;;;;;;19.32;8.43;;;;;;;5.21;81.65;101854.09;1699249;84;21290;-78
2022/10/17 04:41:58;;;;;;;16.10;7.75;;;;;;;4.89;82.77;101852.19;1698105;83;21243;-78
2022/10/17 04:45:06;;;;;;;16.20;8.35;;;;;;;5.18;82.24;101856.17;1704832;84;21255;-79
2022/10/17 04:48:13;;;;;;;14.78;8.48;;;;;;;5.15;82.50;101868.09;1698505;84;21212;-78
2022/10/17 04:51:23;;;;;;;13.68;7.30;;;;;;;5.25;82.17;101867.84;1705627;84;21204;-79
2022/10/17 04:54:30;;;;;;;14.60;8.40;;;;;;;5.12;82.49;101874.58;1697346;84;21784;-78
2022/10/17 04:57:39;;;;;;;18.23;8.73;;;;;;;5.41;82.70;101874.92;1733731;82;21180;-78
2022/10/17 05:00:45;;;;;;;18.95;7.97;;;;;;;5.48;82.36;101869.48;1716315;83;21497;-78
2022/10/17 05:03:53;;;;;;;22.55;9.08;;;;;;;5.49;82.65;101872.08;1724320;83;21222;-79
2022/10/17 05:06:58;;;;;;;20.08;9.43;;;;;;;5.53;82.91;101874.09;1662125;86;21633;-79
2022/10/17 05:10:06;;;;;;;18.85;8.93;;;;;;;5.66;82.94;101885.85;1718823;81;21204;-79
2022/10/17 05:13:12;;;;;;;14.90;8.80;;;;;;;5.63;83.02;101881.49;1729615;81;21224;-79
2022/10/17 05:16:18;;;;;;;14.23;7.65;;;;;;;5.45;84.57;101888.19;1726633;81;21192;-79
2022/10/17 05:19:24;;;;;;;18.57;9.40;;;;;;;5.93;83.31;101896.67;1725484;83;21152;-79
2022/10/17 05:22:22;;;;;;;;;;;;;;;5.98;83.65;101899.94;1727988;81;21231;-79
2022/10/17 05:25:43;;;;;;;18.23;8.83;;;;;;;6.21;83.26;101895.59;1717683;81;20403;-79
2022/10/17 05:28:51;;;;;;;18.75;8.55;;;;;;;6.39;82.76;101899.67;1726795;81;21224;-78
2022/10/17 05:31:59;;;;;;;26.27;8.95;;;;;;;6.43;82.59;101899.47;1722199;81;21160;-79
2022/10/17 05:35:05;;;;;;;18.82;8.93;;;;;;;6.32;83.04;101897.53;1728313;81;21183;-79
2022/10/17 05:38:13;;;;;;;19.62;8.73;;;;;;;6.20;83.93;101907.41;1723743;83;21195;-79
2022/10/17 05:41:19;;;;;;;17.65;7.72;;;;;;;6.25;84.25;101902.52;1725431;81;21191;-79
2022/10/17 05:44:25;;;;;;;14.78;8.28;;;;;;;6.52;84.12;101909.67;1758702;80;21187;-79
2022/10/17 05:47:32;;;;;;;13.25;7.62;;;;;;;6.87;82.13;101917.50;1722807;81;21739;-80
2022/10/17 05:50:41;;;;;;;14.05;7.65;;;;;;;7.19;81.41;101910.12;1718199;81;21216;-80
2022/10/17 05:53:48;;;;;;;15.90;7.55;;;;;;;7.35;80.27;101913.94;1714502;83;21184;-79
2022/10/17 05:57:04;;;;;;;20.23;7.75;;;;;;;7.64;79.06;101923.95;1715944;83;21210;-81
2022/10/17 06:00:12;;;;;;;17.87;8.00;;;;;;;7.53;78.99;101929.33;1704651;83;21762;-79
2022/10/17 06:03:20;;;;;;;14.45;7.75;;;;;;;7.69;78.22;101921.73;1719592;83;21227;-78
2022/10/17 06:06:28;;;;;;;12.43;6.95;;;;;;;7.76;77.64;101919.39;1717422;83;21251;-80
2022/10/17 06:09:35;;;;;;;11.48;7.03;;;;;;;7.84;77.08;101916.45;1728364;81;22913;-79
2022/10/17 06:12:44;;;;;;;17.32;8.15;;;;;;;7.99;76.60;101920.33;1704559;83;21247;-79
2022/10/17 06:15:50;;;;;;;12.80;7.03;;;;;;;8.12;76.27;101928.78;1763816;80;21243;-79
2022/10/17 06:18:55;;;;;;;17.45;7.60;;;;;;;8.10;76.17;101926.69;1729218;81;21775;-79
2022/10/17 06:22:01;;;;;;;11.68;7.83;;;;;;;8.29;75.84;101924.73;1713296;82;21173;-79
2022/10/17 06:25:07;;;;;;;13.10;6.78;;;;;;;8.51;74.81;101923.02;1712389;83;21808;-79
2022/10/17 06:28:13;;;;;;;11.73;6.28;;;;;;;8.05;75.64;101923.95;1716055;81;21750;-80
2022/10/17 06:31:22;;;;;;;14.07;6.90;;;;;;;8.37;74.66;101928.22;1715749;82;21306;-79
2022/10/17 06:34:28;;;;;;;11.43;6.08;;;;;;;8.46;73.60;101923.39;1718207;83;21224;-79
2022/10/17 06:37:39;;;;;;;13.00;6.75;;;;;;;8.62;73.44;101925.27;1722028;81;21184;-80
2022/10/17 06:40:47;;;;;;;14.60;6.67;;;;;;;8.78;72.58;101924.02;1704315;83;21882;-79
2022/10/17 06:43:54;;;;;;;12.25;5.80;;;;;;;8.84;72.66;101928.45;1723144;81;21207;-79
2022/10/17 06:47:05;;;;;;;20.90;6.40;;;;;;;9.07;72.23;101937.98;1713019;83;21236;-80
2022/10/17 06:50:16;;;;;;;13.00;6.10;;;;;;;9.07;71.85;101941.58;1720136;81;21779;-79
2022/10/17 06:53:26;;;;;;;13.95;6.35;;;;;;;9.37;70.76;101943.63;1718073;82;21188;-79
2022/10/17 06:56:36;;;;;;;14.40;6.95;;;;;;;9.45;70.57;101942.47;1716874;81;21626;-80
2022/10/17 06:59:44;;;;;;;12.37;5.92;;;;;;;9.56;70.16;101944.81;1714334;81;21192;-79
2022/10/17 07:02:52;;;;;;;12.30;6.22;;;;;;;9.71;69.69;101943.00;1721178;81;22119;-80
2022/10/17 07:06:02;;;;;;;15.32;6.22;;;;;;;9.76;69.44;101946.70;1688359;83;21279;-79
2022/10/17 07:09:12;;;;;;;13.00;6.55;;;;;;;9.91;68.89;101945.88;1722462;82;21369;-81
2022/10/17 07:12:16;;;;;;;12.30;6.00;;;;;;;10.03;68.08;101957.64;1712572;83;21203;-81
2022/10/17 07:15:28;;;;;;;16.48;5.83;;;;;;;10.18;67.32;101959.03;1713445;81;22773;-80
2022/10/17 07:18:33;;;;;;;11.85;5.62;;;;;;;10.26;66.19;101956.53;1757020;81;22218;-81
2022/10/17 07:21:40;;;;;;;10.58;5.00;;;;;;;10.41;65.64;101953.81;1725813;81;22309;-79
2022/10/17 07:24:50;;;;;;;9.30;5.62;;;;;;;10.66;64.39;101957.09;1720959;81;21160;-79
2022/10/17 07:28:02;;;;;;;10.50;5.03;;;;;;;10.78;63.51;101955.15;1719412;81;21223;-81
2022/10/17 07:31:18;;;;;;;8.80;5.10;;;;;;;10.92;63.44;101960.25;1717412;81;21305;-81
2022/10/17 07:34:30;;;;;;;10.58;5.35;;;;;;;10.99;63.44;101954.06;1684040;83;21337;-81
2022/10/17 07:37:33;;;;;;;7.80;4.58;;;;;;;11.22;62.71;101963.42;1713944;81;21231;-80
2022/10/17 07:40:42;;;;;;;8.08;4.78;;;;;;;11.17;62.84;101967.09;1716819;81;21196;-81
2022/10/17 07:43:47;;;;;;;11.50;4.97;;;;;;;11.24;62.67;101970.98;1713610;81;21290;-81
2022/10/17 07:46:54;;;;;;;8.30;4.67;;;;;;;11.36;62.92;101972.61;1721465;82;21215;-81
2022/10/17 07:50:01;;;;;;;7.37;4.47;;;;;;;11.39;62.38;101964.12;1715227;83;21203;-79
2022/10/17 07:53:07;;;;;;;12.30;4.87;;;;;;;11.32;62.95;101957.46;1684404;84;21149;-79
2022/10/17 07:56:15;;;;;;;8.83;4.67;;;;;;;11.34;62.35;101960.05;1713487;81;22352;-78
2022/10/17 07:59:21;;;;;;;7.95;4.62;;;;;;;11.51;62.23;101957.48;1717911;81;21180;-78
2022/10/17 08:02:32;;;;;;;12.65;4.87;;;;;;;11.59;61.46;101955.41;1714913;81;21168;-79
2022/10/17 08:05:35;;;;;;;10.82;4.75;;;;;;;11.73;60.71;101955.50;1718558;82;21224;-79
2022/10/17 08:08:35;;;;;;;10.53;5.00;;;;;;;11.80;59.88;101951.16;1721761;82;21200;-79
2022/10/17 08:11:29;;;;;;;10.68;4.65;;;;;;;11.91;59.66;101951.05;1719352;81;21232;-79
2022/10/17 08:14:19;;;;;;;10.58;4.92;;;;;;;11.95;59.45;101942.01;1719697;82;21232;-80
2022/10/17 08:17:12;;;;;;;10.45;4.92;;;;;;;12.10;59.22;101947.94;1714347;81;21180;-80
2022/10/17 08:19:58;;;;;;;7.92;3.87;;;;;;;12.28;58.61;101947.55;1690900;83;21297;-79
2022/10/17 08:23:05;;;;;;;11.88;4.58;;;;;;;12.36;58.03;101949.53;1692628;83;21204;-80
2022/10/17 08:26:18;;;;;;;7.35;4.17;;;;;;;12.39;56.65;101939.64;1721327;81;22181;-80
2022/10/17 08:29:25;;;;;;;8.43;3.98;;;;;;;12.43;56.40;101937.83;1720074;81;22712;-79
2022/10/17 08:32:34;;;;;;;10.35;4.72;;;;;;;12.75;55.56;101949.78;1727585;81;22200;-79
2022/10/17 08:35:40;;;;;;;9.78;4.28;;;;;;;12.90;55.10;101954.77;1720460;81;21175;-80
2022/10/17 08:38:45;;;;;;;7.00;4.00;;;;;;;12.92;55.29;101943.98;1721704;82;22181;-81
2022/10/17 08:42:16;;;;;;;11.43;3.52;;;;;;;12.98;55.61;101957.60;1684867;84;21270;-80
2022/10/17 08:45:37;;;;;;;8.48;4.10;;;;;;;13.00;54.61;101958.34;1714966;82;21280;-80
2022/10/17 08:48:50;;;;;;;8.70;4.50;;;;;;;13.07;55.23;101940.20;1708459;83;21945;-79
2022/10/17 08:52:02;;;;;;;11.18;4.87;;;;;;;13.05;55.86;101940.88;1715174;82;21224;-79
2022/10/17 08:55:10;;;;;;;8.58;4.05;;;;;;;13.19;56.07;101940.37;1757711;80;21199;-80
2022/10/17 08:58:39;;;;;;;7.90;3.77;;;;;;;13.15;55.49;101936.20;1757935;80;21726;-81
2022/10/17 09:02:31;;;;;;;9.75;4.05;;;;;;;13.33;54.47;101932.66;1708427;82;21862;-81
2022/10/17 09:05:58;;;;;;;7.78;4.10;;;;;;;13.41;54.33;101940.48;1717385;81;22208;-81
2022/10/17 09:09:32;;;;;;;9.05;4.03;;;;;;;13.55;53.02;101941.84;1722480;81;21276;-81
2022/10/17 09:13:06;;;;;;;9.75;4.15;;;;;;;13.77;52.25;101928.10;1759567;80;21187;-81
2022/10/17 09:16:31;;;;;;;5.00;2.77;;;;;;;13.84;52.02;101930.59;1752450;81;21180;-80
2022/10/17 09:20:10;;;;;;;6.37;2.80;;;;;;;14.10;50.37;101928.38;1754398;80;22102;-80
2022/10/17 09:23:26;;;;;;;8.13;2.65;;;;;;;14.13;49.60;101919.30;1720555;83;21200;-80
2022/10/17 09:26:33;;;;;;;4.50;2.80;;;;;;;14.32;48.85;101922.36;1720964;83;21271;-80
2022/10/17 09:29:39;;;;;;;8.55;2.98;;;;;;;14.34;49.02;101927.17;1719687;83;21298;-80
2022/10/17 09:32:46;;;;;;;4.72;2.45;;;;;;;14.54;48.52;101921.85;1725191;81;21203;-80
2022/10/17 09:35:53;;;;;;;5.87;2.60;;;;;;;14.58;48.21;101916.86;1684329;83;21207;-80
2022/10/17 09:39:14;;;;;;;7.37;3.15;;;;;;;14.50;47.96;101907.20;1690626;83;21208;-80
2022/10/17 09:42:08;;;;;;;13.18;2.50;;;;;;;14.55;48.33;101912.56;1684669;84;21216;-80
2022/10/17 09:45:30;;;;;;;12.78;2.70;;;;;;;14.75;47.77;101910.41;1716966;81;21212;-80
2022/10/17 09:48:51;;;;;;;5.28;2.47;;;;;;;14.74;47.74;101907.84;1727387;81;21191;-79
2022/10/17 09:51:57;;;;;;;5.87;2.65;;;;;;;14.80;46.30;101911.30;1717164;81;21221;-79
2022/10/17 09:55:09;;;;;;;5.53;2.40;;;;;;;14.88;45.72;101910.48;1719616;81;21287;-79
2022/10/17 09:58:15;;;;;;;4.92;2.10;;;;;;;14.92;44.84;101914.12;1686243;82;21385;-80
2022/10/17 10:01:33;;;;;;;4.15;2.00;;;;;;;14.87;44.50;101915.62;1690602;84;21188;-80
2022/10/17 10:04:38;;;;;;;12.00;2.52;;;;;;;14.90;44.86;101912.55;1720783;83;21251;-80
2022/10/17 10:07:46;;;;;;;4.00;2.45;;;;;;;14.98;44.73;101898.80;1716428;81;21192;-80
2022/10/17 10:10:51;;;;;;;8.73;2.75;;;;;;;15.07;44.61;101887.64;1724623;83;21775;-79
2022/10/17 10:13:57;;;;;;;8.33;2.50;;;;;;;15.03;44.60;101889.00;1714196;82;21212;-79
2022/10/17 10:17:05;;;;;;;4.20;2.60;;;;;;;15.01;44.90;101886.09;1710858;83;21196;-79
2022/10/17 10:20:39;;;;;;;6.45;2.80;;;;;;;14.98;45.19;101883.14;1715797;82;21208;-78
2022/10/17 10:23:49;;;;;;;11.85;3.17;;;;;;;15.00;45.35;101872.80;1727597;81;21227;-79
2022/10/17 10:26:57;;;;;;;9.18;2.95;;;;;;;14.94;45.39;101867.97;1727026;81;21204;-80
2022/10/17 10:30:04;;;;;;;4.17;2.37;;;;;;;14.96;45.76;101864.55;1694416;84;21228;-80
2022/10/17 10:33:09;;;;;;;5.62;2.90;;;;;;;15.00;46.02;101870.56;1692826;83;21180;-81
2022/10/17 10:36:14;;;;;;;4.08;2.17;;;;;;;15.11;46.18;101868.03;1693334;83;21226;-78
2022/10/17 10:39:35;;;;;;;5.28;2.80;;;;;;;15.15;46.40;101870.28;1697481;83;21231;-80
2022/10/17 10:42:43;;;;;;;4.90;2.92;;;;;;;15.44;45.86;101867.58;1719288;81;21524;-80
2022/10/17 10:45:50;;;;;;;5.30;2.25;;;;;;;15.34;46.20;101870.49;1715103;81;21192;-80
2022/10/17 10:49:08;;;;;;;5.10;2.65;;;;;;;15.46;45.90;101871.01;1712196;81;22017;-80
2022/10/17 10:52:13;;;;;;;5.78;2.40;;;;;;;15.53;46.18;101874.30;1724037;82;22221;-80
2022/10/17 10:55:45;;;;;;;5.42;2.60;;;;;;;15.62;45.77;101885.31;1717609;81;21180;-81
2022/10/17 10:58:59;;;;;;;6.15;2.50;;;;;;;15.67;45.54;101882.97;1729550;81;22521;-80
2022/10/17 11:02:31;;;;;;;4.35;2.47;;;;;;;15.65;45.52;101881.74;1715273;83;21184;-80
2022/10/17 11:06:05;;;;;;;9.40;4.30;;;;;;;15.48;45.79;101877.20;1713255;81;22172;-80
2022/10/17 11:09:34;;;;;;;5.03;2.40;;;;;;;15.55;45.73;101869.47;1718571;81;21260;-79
2022/10/17 11:13:21;;;;;;;3.55;2.10;;;;;;;15.54;45.91;101871.88;1731140;81;21187;-80
2022/10/17 11:16:34;;;;;;;5.58;2.55;;;;;;;15.35;46.30;101883.23;1723756;83;21196;-79
2022/10/17 11:19:52;;;;;;;4.40;2.77;;;;;;;14.18;48.38;101887.17;1727236;81;21569;-79
2022/10/17 11:23:00;;;;;;;5.75;2.10;;;;;;;14.35;48.68;101879.87;1723136;82;21184;-80
2022/10/17 11:26:09;;;;;;;4.80;2.17;;;;;;;14.47;48.63;101881.33;1719398;81;21260;-79
2022/10/17 11:29:17;;;;;;;5.40;2.27;;;;;;;14.50;48.52;101883.80;1726226;82;22071;-79
2022/10/17 11:32:45;;;;;;;13.05;2.40;;;;;;;14.78;47.82;101881.69;1715498;81;22515;-79
2022/10/17 11:35:46;;;;;;;4.20;1.82;;;;;;;14.88;47.58;101883.80;1726858;82;21271;-79
2022/10/17 11:38:56;;;;;;;2.85;1.75;;;;;;;14.67;48.25;101877.84;1715749;83;21212;-80
2022/10/17 11:41:53;;;;;;;2.35;1.82;;;;;;;15.05;46.92;101873.16;1724738;81;21239;-79
2022/10/17 11:44:49;;;;;;;4.95;1.92;;;;;;;15.02;46.79;101870.75;1727361;81;21199;-80
2022/10/17 11:47:49;;;;;;;3.72;2.17;;;;;;;15.10;46.71;101861.63;1727021;80;21227;-79
2022/10/17 11:51:00;;;;;;;2.98;1.62;;;;;;;14.67;47.63;101858.04;1725650;81;21187;-79
2022/10/17 11:54:15;;;;;;;9.05;2.05;;;;;;;14.57;48.59;101854.04;1726258;81;21206;-78
2022/10/17 11:57:42;;;;;;;7.53;1.98;;;;;;;14.70;47.95;101851.35;1723289;82;21179;-78
2022/10/17 12:01:15;;;;;;;2.80;1.85;;;;;;;14.67;47.90;101848.92;1725514;82;22632;-79
2022/10/17 12:04:48;;;;;;;4.22;1.77;;;;;;;14.82;47.79;101848.66;1729205;82;21207;-80
2022/10/17 12:08:12;;;;;;;3.67;1.55;;;;;;;14.82;47.89;101850.89;1727995;81;21234;-79
2022/10/17 12:11:54;;;;;;;7.45;2.10;;;;;;;14.73;48.17;101852.41;1725264;83;21267;-79
2022/10/17 12:15:01;;;;;;;5.58;1.77;;;;;;;14.77;47.73;101855.15;1725486;82;21850;-79
2022/10/17 12:18:09;;;;;;;6.42;2.02;;;;;;;14.60;47.98;101854.23;1723334;81;21219;-79
2022/10/17 12:21:15;;;;;;;3.25;1.70;;;;;;;14.69;47.83;101856.52;1725771;81;21268;-79
2022/10/17 12:24:28;;;;;;;3.02;1.85;;;;;;;14.56;48.16;101863.85;1727655;82;21187;-79
2022/10/17 12:27:46;;;;;;;4.22;1.77;;;;;;;14.70;48.22;101867.36;1724452;81;21327;-79
2022/10/17 12:31:08;;;;;;;3.87;1.80;;;;;;;14.90;48.20;101865.70;1725131;82;21195;-78
2022/10/17 12:34:20;;;;;;;11.55;2.15;;;;;;;14.71;48.39;101880.61;1724373;82;21199;-78
2022/10/17 12:37:53;;;;;;;5.17;1.65;;;;;;;14.95;47.75;101875.19;1722974;81;21205;-80
2022/10/17 12:41:02;;;;;;;4.12;2.40;;;;;;;14.99;47.53;101879.34;1728063;81;21179;-80
2022/10/17 12:44:08;;;;;;;4.42;2.47;;;;;;;15.02;47.60;101875.41;1725659;81;21203;-80
2022/10/17 12:47:20;;;;;;;4.53;2.05;;;;;;;15.01;47.47;101875.92;1727624;81;21209;-80
2022/10/17 12:51:12;;;;;;;3.72;2.00;;;;;;;15.17;47.13;101879.23;1741170;80;21750;-80
2022/10/17 12:54:20;;;;;;;3.60;2.02;;;;;;;15.23;46.81;101885.95;1717407;81;21188;-78
2022/10/17 12:57:51;;;;;;;5.45;1.92;;;;;;;15.17;46.65;101882.50;1723397;83;21201;-78
2022/10/17 13:01:00;;;;;;;3.83;2.10;;;;;;;15.22;46.72;101880.96;1707116;83;21236;-78
2022/10/17 13:04:07;;;;;;;3.70;1.75;;;;;;;15.23;46.63;101881.82;1721117;83;21188;-78
2022/10/17 13:07:14;;;;;;;6.53;1.98;;;;;;;15.05;47.11;101882.80;1706886;83;21212;-78
2022/10/17 13:10:33;;;;;;;4.47;1.65;;;;;;;15.16;46.82;101883.55;1705774;83;21267;-78
2022/10/17 13:13:55;;;;;;;2.12;1.55;;;;;;;15.15;46.53;101887.30;1721952;83;21886;-78
2022/10/17 13:17:08;;;;;;;4.90;1.85;;;;;;;15.27;46.46;101877.18;1721183;83;21223;-78
2022/10/17 13:20:27;;;;;;;6.08;1.87;;;;;;;14.91;46.85;101871.05;1722148;83;21205;-78
2022/10/17 13:23:38;;;;;;;4.50;2.08;;;;;;;14.82;47.05;101877.58;1722552;83;21193;-78
2022/10/17 13:26:43;;;;;;;5.72;1.95;;;;;;;14.77;47.10;101874.43;1723528;83;21244;-78
2022/10/17 13:29:51;;;;;;;3.75;1.60;;;;;;;14.73;47.06;101868.94;1724391;83;21201;-79
2022/10/17 13:32:57;;;;;;;2.20;1.70;;;;;;;14.78;46.98;101871.53;1723252;83;21228;-78
2022/10/17 13:36:02;;;;;;;2.95;1.55;;;;;;;14.76;47.10;101869.95;1724873;83;21197;-78
2022/10/17 13:39:15;;;;;;;4.78;1.90;;;;;;;14.83;46.99;101863.63;1724973;83;21193;-78
2022/10/17 13:42:32;;;;;;;10.08;1.70;;;;;;;14.81;47.23;101858.78;1723412;83;21228;-78
2022/10/17 13:45:41;;;;;;;3.95;2.17;;;;;;;14.71;47.28;101853.07;1723461;83;21208;-78
2022/10/17 13:48:48;;;;;;;7.23;1.97;;;;;;;14.69;47.46;101860.66;1724379;83;21208;-78
2022/10/17 13:51:55;;;;;;;2.30;1.60;;;;;;;14.46;47.68;101852.94;1723747;81;21228;-78
2022/10/17 13:55:01;;;;;;;9.28;2.00;;;;;;;14.49;47.58;101849.89;1724810;83;21763;-78
2022/10/17 13:58:25;;;;;;;6.65;2.00;;;;;;;14.47;47.49;101845.53;1724731;83;21192;-78
2022/10/17 14:01:32;;;;;;;8.58;1.80;;;;;;;14.27;47.92;101843.55;1724672;83;21216;-78
2022/10/17 14:04:39;;;;;;;3.58;1.95;;;;;;;14.43;47.56;101849.12;1723676;83;21239;-78
2022/10/17 14:08:04;;;;;;;3.42;2.05;;;;;;;14.09;48.25;101846.35;1726438;83;21728;-78
2022/10/17 14:11:34;;;;;;;10.10;3.25;;;;;;;14.09;48.50;101842.73;1723932;83;21201;-78
2022/10/17 14:14:41;;;;;;;8.13;2.20;;;;;;;14.07;48.86;101844.29;1725200;83;21215;-78
2022/10/17 14:17:50;;;;;;;7.78;2.30;;;;;;;13.99;48.99;101841.47;1723442;83;21232;-78
2022/10/17 14:20:56;;;;;;;13.38;2.33;;;;;;;13.96;48.96;101845.40;1723502;82;21767;-78
2022/10/17 14:24:30;;;;;;;13.68;2.22;;;;;;;13.80;49.22;101846.67;1723720;83;21168;-78
2022/10/17 14:27:41;;;;;;;4.35;1.70;;;;;;;13.67;49.40;101842.09;1639826;87;21250;-78
2022/10/17 14:30:54;;;;;;;7.50;2.22;;;;;;;13.42;49.88;101835.53;1639992;87;21206;-78
2022/10/17 14:34:01;;;;;;;14.45;2.33;;;;;;;13.34;50.37;101828.58;1723640;83;21224;-78
2022/10/17 14:37:07;;;;;;;4.05;1.92;;;;;;;13.26;50.96;101823.34;1724952;83;21192;-78
2022/10/17 14:40:14;;;;;;;7.42;2.10;;;;;;;13.17;51.56;101820.64;1723348;82;21196;-79
2022/10/17 14:43:23;;;;;;;3.75;2.20;;;;;;;13.28;51.49;101818.56;1726322;82;21224;-79
2022/10/17 14:46:29;;;;;;;4.72;2.27;;;;;;;13.14;51.58;101825.95;1723718;82;21208;-79
2022/10/17 14:49:42;;;;;;;8.28;2.25;;;;;;;13.01;51.69;101827.70;1724905;83;21197;-79